sensor_id;sensor_type;location;lat;lon;timestamp;pressure;altitude;pressure_sealevel;temperature;humidity
62694;BME280;48759;52.544;13.418;2023-01-25T00:01:55;103215.69;;;0.64;100.00
62694;BME280;48759;52.544;13.418;2023-01-25T00:04:22;103210.19;;;0.49;100.00
62694;BME280;48759;52.544;13.418;2023-01-25T00:06:49;103195.91;;;0.62;100.00
62694;BME280;48759;52.544;13.418;2023-01-25T00:09:17;103199.09;;;0.70;100.00
62694;BME280;48759;52.544;13.418;2023-01-25T00:11:44;103189.13;;;0.88;100.00
62694;BME280;48759;52.544;13.418;2023-01-25T00:14:11;103182.66;;;0.73;100.00
62694;BME280;48759;52.544;13.418;2023-01-25T00:16:40;103179.94;;;0.91;100.00
62694;BME280;48759;52.544;13.418;2023-01-25T00:19:08;103180.31;;;0.50;100.00
62694;BME280;48759;52.544;13.418;2023-01-25T00:21:36;103177.19;;;1.08;100.00
62694;BME280;48759;52.544;13.418;2023-01-25T00:24:03;103165.88;;;0.83;100.00
62694;BME280;48759;52.544;13.418;2023-01-25T00:26:31;103161.81;;;1.24;100.00
62694;BME280;48759;52.544;13.418;2023-01-25T00:28:58;103155.03;;;1.00;100.00
62694;BME280;48759;52.544;13.418;2023-01-25T00:31:31;103154.28;;;1.29;100.00
62694;BME280;48759;52.544;13.418;2023-01-25T00:34:24;103149.34;;;0.89;100.00
62694;BME280;48759;52.544;13.418;2023-01-25T00:37:03;103142.22;;;1.35;100.00
62694;BME280;48759;52.544;13.418;2023-01-25T00:39:36;103129.16;;;1.41;100.00
62694;BME280;48759;52.544;13.418;2023-01-25T00:42:03;103121.38;;;1.20;100.00
62694;BME280;48759;52.544;13.418;2023-01-25T00:44:30;103115.44;;;1.13;100.00
62694;BME280;48759;52.544;13.418;2023-01-25T00:46:56;103109.47;;;1.38;100.00
62694;BME280;48759;52.544;13.418;2023-01-25T00:49:26;103111.75;;;1.30;100.00
62694;BME280;48759;52.544;13.418;2023-01-25T00:51:56;103097.72;;;1.37;100.00
62694;BME280;48759;52.544;13.418;2023-01-25T00:54:23;103104.66;;;1.43;100.00
62694;BME280;48759;52.544;13.418;2023-01-25T00:56:51;103104.97;;;1.52;100.00
62694;BME280;48759;52.544;13.418;2023-01-25T00:59:18;103097.41;;;1.43;100.00
62694;BME280;48759;52.544;13.418;2023-01-25T01:01:45;103094.59;;;1.29;100.00
62694;BME280;48759;52.544;13.418;2023-01-25T01:04:12;103107.03;;;0.85;100.00
62694;BME280;48759;52.544;13.418;2023-01-25T01:06:40;103119.69;;;0.68;100.00
62694;BME280;48759;52.544;13.418;2023-01-25T01:09:11;103124.94;;;0.71;100.00
62694;BME280;48759;52.544;13.418;2023-01-25T01:11:38;103119.09;;;0.46;100.00
62694;BME280;48759;52.544;13.418;2023-01-25T01:14:05;103131.72;;;0.80;100.00
62694;BME280;48759;52.544;13.418;2023-01-25T01:16:31;103127.59;;;0.73;100.00
62694;BME280;48759;52.544;13.418;2023-01-25T01:18:58;103118.06;;;0.49;100.00
62694;BME280;48759;52.544;13.418;2023-01-25T01:21:25;103107.09;;;0.67;100.00
62694;BME280;48759;52.544;13.418;2023-01-25T01:23:54;103114.47;;;0.48;100.00
62694;BME280;48759;52.544;13.418;2023-01-25T01:26:21;103112.19;;;0.73;100.00
62694;BME280;48759;52.544;13.418;2023-01-25T01:28:48;103110.59;;;0.69;100.00
62694;BME280;48759;52.544;13.418;2023-01-25T01:31:16;103107.44;;;0.61;100.00
62694;BME280;48759;52.544;13.418;2023-01-25T01:33:44;103111.59;;;0.51;100.00
62694;BME280;48759;52.544;13.418;2023-01-25T01:36:15;103107.03;;;0.52;100.00
62694;BME280;48759;52.544;13.418;2023-01-25T01:38:43;103106.63;;;0.59;100.00
62694;BME280;48759;52.544;13.418;2023-01-25T01:41:12;103107.44;;;0.61;100.00
62694;BME280;48759;52.544;13.418;2023-01-25T01:43:39;103101.97;;;0.78;100.00
62694;BME280;48759;52.544;13.418;2023-01-25T01:46:09;103099.31;;;0.94;100.00
62694;BME280;48759;52.544;13.418;2023-01-25T01:48:40;103105.78;;;1.23;100.00
62694;BME280;48759;52.544;13.418;2023-01-25T01:51:14;103099.56;;;1.21;100.00
62694;BME280;48759;52.544;13.418;2023-01-25T01:53:43;103092.13;;;0.93;100.00
62694;BME280;48759;52.544;13.418;2023-01-25T01:56:17;103092.31;;;1.06;100.00
62694;BME280;48759;52.544;13.418;2023-01-25T01:58:47;103097.06;;;1.18;100.00
62694;BME280;48759;52.544;13.418;2023-01-25T02:01:16;103093.63;;;1.30;100.00
62694;BME280;48759;52.544;13.418;2023-01-25T02:03:44;103085.44;;;1.62;100.00
62694;BME280;48759;52.544;13.418;2023-01-25T02:06:13;103094.69;;;1.43;100.00
62694;BME280;48759;52.544;13.418;2023-01-25T02:08:41;103095.53;;;1.60;100.00
62694;BME280;48759;52.544;13.418;2023-01-25T02:11:08;103092.16;;;1.40;100.00
62694;BME280;48759;52.544;13.418;2023-01-25T02:13:37;103088.84;;;2.39;100.00
62694;BME280;48759;52.544;13.418;2023-01-25T02:16:05;103084.53;;;2.65;100.00
62694;BME280;48759;52.544;13.418;2023-01-25T02:18:37;103086.75;;;2.44;100.00
62694;BME280;48759;52.544;13.418;2023-01-25T02:21:04;103085.47;;;2.36;100.00
62694;BME280;48759;52.544;13.418;2023-01-25T02:23:34;103077.00;;;1.82;100.00
62694;BME280;48759;52.544;13.418;2023-01-25T02:26:06;103079.38;;;0.95;100.00
62694;BME280;48759;52.544;13.418;2023-01-25T02:28:35;103079.75;;;1.05;100.00
62694;BME280;48759;52.544;13.418;2023-01-25T02:31:05;103078.00;;;1.20;100.00
62694;BME280;48759;52.544;13.418;2023-01-25T02:33:31;103081.97;;;1.60;100.00
62694;BME280;48759;52.544;13.418;2023-01-25T02:36:11;103089.53;;;1.23;100.00
62694;BME280;48759;52.544;13.418;2023-01-25T02:38:43;103072.69;;;1.64;100.00
62694;BME280;48759;52.544;13.418;2023-01-25T02:41:16;103067.56;;;1.73;100.00
62694;BME280;48759;52.544;13.418;2023-01-25T02:43:43;103066.41;;;1.77;100.00
62694;BME280;48759;52.544;13.418;2023-01-25T02:46:13;103065.59;;;1.91;100.00
62694;BME280;48759;52.544;13.418;2023-01-25T02:48:41;103061.44;;;1.70;100.00
62694;BME280;48759;52.544;13.418;2023-01-25T02:51:08;103072.44;;;1.37;100.00
62694;BME280;48759;52.544;13.418;2023-01-25T02:53:35;103071.66;;;1.50;100.00
62694;BME280;48759;52.544;13.418;2023-01-25T02:56:02;103061.22;;;1.59;100.00
62694;BME280;48759;52.544;13.418;2023-01-25T02:58:31;103068.09;;;1.80;100.00
62694;BME280;48759;52.544;13.418;2023-01-25T03:00:57;103056.66;;;1.89;100.00
62694;BME280;48759;52.544;13.418;2023-01-25T03:03:24;103054.59;;;1.78;100.00
62694;BME280;48759;52.544;13.418;2023-01-25T03:05:51;103056.25;;;1.51;100.00
62694;BME280;48759;52.544;13.418;2023-01-25T03:08:17;103052.19;;;1.28;100.00
62694;BME280;48759;52.544;13.418;2023-01-25T03:10:44;103056.81;;;1.26;100.00
62694;BME280;48759;52.544;13.418;2023-01-25T03:13:11;103055.75;;;1.44;100.00
62694;BME280;48759;52.544;13.418;2023-01-25T03:15:39;103059.69;;;1.23;100.00
62694;BME280;48759;52.544;13.418;2023-01-25T03:18:05;103049.94;;;1.50;100.00
62694;BME280;48759;52.544;13.418;2023-01-25T03:20:32;103046.66;;;1.14;100.00
62694;BME280;48759;52.544;13.418;2023-01-25T03:22:58;103042.09;;;1.30;100.00
62694;BME280;48759;52.544;13.418;2023-01-25T03:25:25;103042.72;;;1.20;100.00
62694;BME280;48759;52.544;13.418;2023-01-25T03:27:52;103030.91;;;1.36;100.00
62694;BME280;48759;52.544;13.418;2023-01-25T03:30:20;103030.16;;;1.48;100.00
62694;BME280;48759;52.544;13.418;2023-01-25T03:32:48;103035.03;;;1.58;100.00
62694;BME280;48759;52.544;13.418;2023-01-25T03:35:17;103034.50;;;1.67;100.00
62694;BME280;48759;52.544;13.418;2023-01-25T03:37:43;103032.81;;;1.34;100.00
62694;BME280;48759;52.544;13.418;2023-01-25T03:40:11;103031.75;;;1.37;100.00
62694;BME280;48759;52.544;13.418;2023-01-25T03:42:37;103024.00;;;1.61;100.00
62694;BME280;48759;52.544;13.418;2023-01-25T03:45:05;103027.19;;;1.37;100.00
62694;BME280;48759;52.544;13.418;2023-01-25T03:47:32;103034.84;;;1.61;100.00
62694;BME280;48759;52.544;13.418;2023-01-25T03:50:00;103034.31;;;1.24;100.00
62694;BME280;48759;52.544;13.418;2023-01-25T03:52:26;103017.47;;;0.88;100.00
62694;BME280;48759;52.544;13.418;2023-01-25T03:54:58;103013.59;;;0.92;100.00
62694;BME280;48759;52.544;13.418;2023-01-25T03:57:25;103018.66;;;0.98;100.00
62694;BME280;48759;52.544;13.418;2023-01-25T03:59:52;103007.66;;;1.46;100.00
62694;BME280;48759;52.544;13.418;2023-01-25T04:02:18;103010.00;;;1.52;100.00
62694;BME280;48759;52.544;13.418;2023-01-25T04:04:45;102997.50;;;1.80;100.00
62694;BME280;48759;52.544;13.418;2023-01-25T04:07:13;102988.63;;;1.62;100.00
62694;BME280;48759;52.544;13.418;2023-01-25T04:09:40;102987.81;;;1.76;100.00
62694;BME280;48759;52.544;13.418;2023-01-25T04:12:06;102983.75;;;1.97;100.00
62694;BME280;48759;52.544;13.418;2023-01-25T04:14:33;102979.88;;;2.01;100.00
62694;BME280;48759;52.544;13.418;2023-01-25T04:17:01;102973.56;;;2.01;100.00
62694;BME280;48759;52.544;13.418;2023-01-25T04:19:29;102967.84;;;2.05;100.00
62694;BME280;48759;52.544;13.418;2023-01-25T04:21:56;102966.97;;;2.05;100.00
62694;BME280;48759;52.544;13.418;2023-01-25T04:24:24;102968.44;;;1.96;100.00
62694;BME280;48759;52.544;13.418;2023-01-25T04:26:50;102967.25;;;2.00;100.00
62694;BME280;48759;52.544;13.418;2023-01-25T04:29:17;102959.31;;;2.11;100.00
62694;BME280;48759;52.544;13.418;2023-01-25T04:31:44;102959.13;;;2.14;100.00
62694;BME280;48759;52.544;13.418;2023-01-25T04:34:10;102957.78;;;2.21;100.00
62694;BME280;48759;52.544;13.418;2023-01-25T04:36:37;102956.78;;;1.94;100.00
62694;BME280;48759;52.544;13.418;2023-01-25T04:39:04;102942.13;;;1.82;100.00
62694;BME280;48759;52.544;13.418;2023-01-25T04:41:32;102945.25;;;2.05;100.00
62694;BME280;48759;52.544;13.418;2023-01-25T04:43:58;102944.53;;;1.73;100.00
62694;BME280;48759;52.544;13.418;2023-01-25T04:46:25;102944.56;;;1.87;100.00
62694;BME280;48759;52.544;13.418;2023-01-25T04:48:51;102949.25;;;1.99;100.00
62694;BME280;48759;52.544;13.418;2023-01-25T04:51:18;102937.75;;;2.08;100.00
62694;BME280;48759;52.544;13.418;2023-01-25T04:53:45;102936.53;;;2.14;100.00
62694;BME280;48759;52.544;13.418;2023-01-25T04:56:12;102929.63;;;1.94;100.00
62694;BME280;48759;52.544;13.418;2023-01-25T04:58:40;102933.59;;;2.03;100.00
62694;BME280;48759;52.544;13.418;2023-01-25T05:01:06;102928.66;;;1.37;100.00
62694;BME280;48759;52.544;13.418;2023-01-25T05:03:33;102927.47;;;1.27;100.00
62694;BME280;48759;52.544;13.418;2023-01-25T05:06:00;102927.47;;;1.71;100.00
62694;BME280;48759;52.544;13.418;2023-01-25T05:08:26;102917.78;;;1.81;100.00
62694;BME280;48759;52.544;13.418;2023-01-25T05:10:53;102921.25;;;1.69;100.00
62694;BME280;48759;52.544;13.418;2023-01-25T05:13:20;102924.66;;;1.72;100.00
62694;BME280;48759;52.544;13.418;2023-01-25T05:15:48;102917.97;;;1.78;100.00
62694;BME280;48759;52.544;13.418;2023-01-25T05:18:15;102913.25;;;1.96;100.00
62694;BME280;48759;52.544;13.418;2023-01-25T05:20:42;102907.72;;;1.83;100.00
62694;BME280;48759;52.544;13.418;2023-01-25T05:23:08;102915.00;;;1.97;100.00
62694;BME280;48759;52.544;13.418;2023-01-25T05:25:35;102912.75;;;2.03;100.00
62694;BME280;48759;52.544;13.418;2023-01-25T05:28:19;102911.78;;;1.76;100.00
62694;BME280;48759;52.544;13.418;2023-01-25T05:30:46;102915.13;;;1.51;100.00
62694;BME280;48759;52.544;13.418;2023-01-25T05:33:14;102916.16;;;1.34;100.00
62694;BME280;48759;52.544;13.418;2023-01-25T05:35:40;102904.09;;;1.68;100.00
62694;BME280;48759;52.544;13.418;2023-01-25T05:38:07;102912.91;;;1.43;100.00
62694;BME280;48759;52.544;13.418;2023-01-25T05:40:34;102924.91;;;1.53;100.00
62694;BME280;48759;52.544;13.418;2023-01-25T05:43:01;102921.84;;;1.60;100.00
62694;BME280;48759;52.544;13.418;2023-01-25T05:45:28;102928.41;;;1.55;100.00
62694;BME280;48759;52.544;13.418;2023-01-25T05:47:56;102920.84;;;1.61;100.00
62694;BME280;48759;52.544;13.418;2023-01-25T05:50:25;102923.75;;;1.43;100.00
62694;BME280;48759;52.544;13.418;2023-01-25T05:52:52;102924.44;;;1.17;100.00
62694;BME280;48759;52.544;13.418;2023-01-25T05:55:18;102918.31;;;1.43;100.00
62694;BME280;48759;52.544;13.418;2023-01-25T05:57:45;102908.22;;;1.45;100.00
62694;BME280;48759;52.544;13.418;2023-01-25T06:00:13;102904.78;;;1.86;100.00
62694;BME280;48759;52.544;13.418;2023-01-25T06:02:39;102907.13;;;2.06;100.00
62694;BME280;48759;52.544;13.418;2023-01-25T06:05:07;102900.50;;;2.39;100.00
62694;BME280;48759;52.544;13.418;2023-01-25T06:07:35;102898.84;;;2.77;100.00
62694;BME280;48759;52.544;13.418;2023-01-25T06:10:02;102900.19;;;2.84;100.00
62694;BME280;48759;52.544;13.418;2023-01-25T06:12:29;102894.06;;;2.81;100.00
62694;BME280;48759;52.544;13.418;2023-01-25T06:14:56;102895.91;;;2.80;100.00
62694;BME280;48759;52.544;13.418;2023-01-25T06:17:22;102888.84;;;2.78;100.00
62694;BME280;48759;52.544;13.418;2023-01-25T06:19:49;102888.72;;;2.79;100.00
62694;BME280;48759;52.544;13.418;2023-01-25T06:22:16;102887.03;;;2.64;100.00
62694;BME280;48759;52.544;13.418;2023-01-25T06:24:44;102887.34;;;2.59;100.00
62694;BME280;48759;52.544;13.418;2023-01-25T06:27:10;102894.47;;;2.33;100.00
62694;BME280;48759;52.544;13.418;2023-01-25T06:29:37;102888.38;;;2.16;100.00
62694;BME280;48759;52.544;13.418;2023-01-25T06:32:04;102887.69;;;2.26;100.00
62694;BME280;48759;52.544;13.418;2023-01-25T06:34:30;102895.59;;;2.03;100.00
62694;BME280;48759;52.544;13.418;2023-01-25T06:36:57;102893.94;;;1.86;100.00
62694;BME280;48759;52.544;13.418;2023-01-25T06:39:25;102893.75;;;1.89;100.00
62694;BME280;48759;52.544;13.418;2023-01-25T06:41:53;102888.91;;;1.80;100.00
62694;BME280;48759;52.544;13.418;2023-01-25T06:44:21;102889.28;;;1.74;100.00
62694;BME280;48759;52.544;13.418;2023-01-25T06:46:47;102882.28;;;1.70;100.00
62694;BME280;48759;52.544;13.418;2023-01-25T06:49:14;102877.06;;;1.67;100.00
62694;BME280;48759;52.544;13.418;2023-01-25T06:51:41;102881.84;;;1.33;100.00
62694;BME280;48759;52.544;13.418;2023-01-25T06:54:08;102874.09;;;1.27;100.00
62694;BME280;48759;52.544;13.418;2023-01-25T06:56:35;102867.94;;;1.53;100.00
62694;BME280;48759;52.544;13.418;2023-01-25T06:59:05;102859.59;;;1.57;100.00
62694;BME280;48759;52.544;13.418;2023-01-25T07:01:32;102855.44;;;1.65;100.00
62694;BME280;48759;52.544;13.418;2023-01-25T07:03:59;102855.34;;;1.67;100.00
62694;BME280;48759;52.544;13.418;2023-01-25T07:06:30;102854.69;;;1.91;100.00
62694;BME280;48759;52.544;13.418;2023-01-25T07:09:01;102851.91;;;1.21;100.00
62694;BME280;48759;52.544;13.418;2023-01-25T07:11:28;102857.91;;;1.26;100.00
62694;BME280;48759;52.544;13.418;2023-01-25T07:13:55;102850.75;;;0.95;100.00
62694;BME280;48759;52.544;13.418;2023-01-25T07:16:24;102855.81;;;1.01;100.00
62694;BME280;48759;52.544;13.418;2023-01-25T07:18:51;102850.94;;;0.76;100.00
62694;BME280;48759;52.544;13.418;2023-01-25T07:21:19;102850.44;;;0.69;100.00
62694;BME280;48759;52.544;13.418;2023-01-25T07:23:47;102850.59;;;0.66;100.00
62694;BME280;48759;52.544;13.418;2023-01-25T07:26:16;102844.19;;;0.83;100.00
62694;BME280;48759;52.544;13.418;2023-01-25T07:28:43;102844.00;;;1.60;100.00
62694;BME280;48759;52.544;13.418;2023-01-25T07:31:11;102827.41;;;1.79;100.00
62694;BME280;48759;52.544;13.418;2023-01-25T07:33:39;102839.97;;;2.08;100.00
62694;BME280;48759;52.544;13.418;2023-01-25T07:36:08;102828.41;;;2.99;100.00
62694;BME280;48759;52.544;13.418;2023-01-25T07:38:35;102836.66;;;2.85;100.00
62694;BME280;48759;52.544;13.418;2023-01-25T07:41:03;102835.91;;;2.15;100.00
62694;BME280;48759;52.544;13.418;2023-01-25T07:43:30;102833.25;;;1.73;100.00
62694;BME280;48759;52.544;13.418;2023-01-25T07:45:59;102828.09;;;1.68;100.00
62694;BME280;48759;52.544;13.418;2023-01-25T07:48:27;102835.41;;;1.68;100.00
62694;BME280;48759;52.544;13.418;2023-01-25T07:50:58;102822.00;;;1.36;100.00
62694;BME280;48759;52.544;13.418;2023-01-25T07:53:37;102822.41;;;1.44;100.00
62694;BME280;48759;52.544;13.418;2023-01-25T07:56:05;102825.69;;;1.35;100.00
62694;BME280;48759;52.544;13.418;2023-01-25T07:58:32;102819.94;;;1.97;100.00
62694;BME280;48759;52.544;13.418;2023-01-25T08:01:05;102812.00;;;2.35;100.00
62694;BME280;48759;52.544;13.418;2023-01-25T08:03:32;102807.97;;;2.40;100.00
62694;BME280;48759;52.544;13.418;2023-01-25T08:06:01;102810.28;;;2.73;100.00
62694;BME280;48759;52.544;13.418;2023-01-25T08:08:30;102808.06;;;2.92;100.00
62694;BME280;48759;52.544;13.418;2023-01-25T08:10:59;102802.72;;;2.78;100.00
62694;BME280;48759;52.544;13.418;2023-01-25T08:13:26;102807.72;;;2.84;100.00
62694;BME280;48759;52.544;13.418;2023-01-25T08:15:53;102801.00;;;3.02;100.00
62694;BME280;48759;52.544;13.418;2023-01-25T08:18:20;102797.72;;;2.97;100.00
62694;BME280;48759;52.544;13.418;2023-01-25T08:20:47;102791.31;;;2.98;100.00
62694;BME280;48759;52.544;13.418;2023-01-25T08:23:15;102797.19;;;2.92;100.00
62694;BME280;48759;52.544;13.418;2023-01-25T08:25:41;102787.03;;;2.82;100.00
62694;BME280;48759;52.544;13.418;2023-01-25T08:28:08;102789.09;;;2.78;100.00
62694;BME280;48759;52.544;13.418;2023-01-25T08:30:35;102791.41;;;2.97;100.00
62694;BME280;48759;52.544;13.418;2023-01-25T08:33:02;102788.81;;;3.21;100.00
62694;BME280;48759;52.544;13.418;2023-01-25T08:35:29;102793.63;;;3.30;100.00
62694;BME280;48759;52.544;13.418;2023-01-25T08:37:55;102797.16;;;3.32;100.00
62694;BME280;48759;52.544;13.418;2023-01-25T08:40:23;102791.22;;;3.13;100.00
62694;BME280;48759;52.544;13.418;2023-01-25T08:42:50;102790.72;;;2.68;100.00
62694;BME280;48759;52.544;13.418;2023-01-25T08:45:16;102785.28;;;2.14;100.00
62694;BME280;48759;52.544;13.418;2023-01-25T08:47:44;102776.88;;;2.31;100.00
62694;BME280;48759;52.544;13.418;2023-01-25T08:50:11;102778.84;;;2.15;100.00
62694;BME280;48759;52.544;13.418;2023-01-25T08:52:37;102779.00;;;2.00;100.00
62694;BME280;48759;52.544;13.418;2023-01-25T08:55:05;102776.34;;;2.12;100.00
62694;BME280;48759;52.544;13.418;2023-01-25T08:57:33;102791.44;;;2.30;100.00
62694;BME280;48759;52.544;13.418;2023-01-25T08:59:59;102792.66;;;2.12;100.00
62694;BME280;48759;52.544;13.418;2023-01-25T09:02:26;102777.78;;;1.91;100.00
62694;BME280;48759;52.544;13.418;2023-01-25T09:04:53;102790.00;;;1.70;100.00
62694;BME280;48759;52.544;13.418;2023-01-25T09:07:20;102778.88;;;1.46;100.00
62694;BME280;48759;52.544;13.418;2023-01-25T09:09:47;102787.47;;;1.52;100.00
62694;BME280;48759;52.544;13.418;2023-01-25T09:12:14;102785.84;;;1.36;100.00
62694;BME280;48759;52.544;13.418;2023-01-25T09:14:42;102781.28;;;1.22;100.00
62694;BME280;48759;52.544;13.418;2023-01-25T09:17:09;102789.13;;;1.12;100.00
62694;BME280;48759;52.544;13.418;2023-01-25T09:19:36;102786.44;;;1.27;100.00
62694;BME280;48759;52.544;13.418;2023-01-25T09:22:03;102784.41;;;1.44;100.00
62694;BME280;48759;52.544;13.418;2023-01-25T09:24:30;102781.91;;;2.38;100.00
62694;BME280;48759;52.544;13.418;2023-01-25T09:26:59;102781.13;;;2.36;100.00
62694;BME280;48759;52.544;13.418;2023-01-25T09:29:26;102775.63;;;1.96;100.00
62694;BME280;48759;52.544;13.418;2023-01-25T09:31:55;102770.97;;;1.98;100.00
62694;BME280;48759;52.544;13.418;2023-01-25T09:34:21;102771.22;;;2.08;100.00
62694;BME280;48759;52.544;13.418;2023-01-25T09:36:48;102767.97;;;2.15;100.00
62694;BME280;48759;52.544;13.418;2023-01-25T09:39:15;102762.47;;;1.62;100.00
62694;BME280;48759;52.544;13.418;2023-01-25T09:42:07;102759.47;;;1.38;100.00
62694;BME280;48759;52.544;13.418;2023-01-25T09:44:48;102768.09;;;1.73;100.00
62694;BME280;48759;52.544;13.418;2023-01-25T09:47:25;102769.03;;;1.86;100.00
62694;BME280;48759;52.544;13.418;2023-01-25T09:50:21;102754.56;;;1.59;100.00
62694;BME280;48759;52.544;13.418;2023-01-25T09:55:52;102752.00;;;1.70;100.00
62694;BME280;48759;52.544;13.418;2023-01-25T09:58:25;102737.69;;;1.39;100.00
62694;BME280;48759;52.544;13.418;2023-01-25T10:01:04;102745.22;;;1.63;100.00
62694;BME280;48759;52.544;13.418;2023-01-25T10:03:39;102741.91;;;1.72;100.00
62694;BME280;48759;52.544;13.418;2023-01-25T10:06:11;102740.13;;;1.85;100.00
62694;BME280;48759;52.544;13.418;2023-01-25T10:08:45;102740.53;;;1.79;100.00
62694;BME280;48759;52.544;13.418;2023-01-25T10:11:20;102734.78;;;1.42;100.00
62694;BME280;48759;52.544;13.418;2023-01-25T10:13:49;102731.75;;;1.61;100.00
62694;BME280;48759;52.544;13.418;2023-01-25T10:16:19;102736.91;;;1.66;100.00
62694;BME280;48759;52.544;13.418;2023-01-25T10:18:58;102725.94;;;1.67;100.00
62694;BME280;48759;52.544;13.418;2023-01-25T10:21:31;102721.13;;;1.99;100.00
62694;BME280;48759;52.544;13.418;2023-01-25T10:27:02;102709.56;;;2.62;100.00
62694;BME280;48759;52.544;13.418;2023-01-25T10:29:38;102705.22;;;2.72;100.00
62694;BME280;48759;52.544;13.418;2023-01-25T10:32:12;102691.88;;;2.69;100.00
62694;BME280;48759;52.544;13.418;2023-01-25T10:34:46;102699.72;;;2.47;100.00
62694;BME280;48759;52.544;13.418;2023-01-25T10:37:19;102697.63;;;3.02;100.00
62694;BME280;48759;52.544;13.418;2023-01-25T10:39:53;102695.91;;;3.01;100.00
62694;BME280;48759;52.544;13.418;2023-01-25T10:42:25;102692.53;;;2.33;100.00
62694;BME280;48759;52.544;13.418;2023-01-25T10:44:53;102697.34;;;2.15;100.00
62694;BME280;48759;52.544;13.418;2023-01-25T10:47:23;102695.28;;;2.06;100.00
62694;BME280;48759;52.544;13.418;2023-01-25T10:49:53;102693.88;;;1.45;100.00
62694;BME280;48759;52.544;13.418;2023-01-25T10:52:22;102689.94;;;1.78;100.00
62694;BME280;48759;52.544;13.418;2023-01-25T10:55:06;102680.31;;;2.13;100.00
62694;BME280;48759;52.544;13.418;2023-01-25T10:57:34;102672.69;;;2.06;100.00
62694;BME280;48759;52.544;13.418;2023-01-25T11:00:05;102675.78;;;2.26;100.00
62694;BME280;48759;52.544;13.418;2023-01-25T11:02:42;102671.66;;;2.33;100.00
62694;BME280;48759;52.544;13.418;2023-01-25T11:05:35;102663.47;;;2.73;100.00
62694;BME280;48759;52.544;13.418;2023-01-25T11:08:32;102662.22;;;1.73;100.00
62694;BME280;48759;52.544;13.418;2023-01-25T11:10:59;102654.66;;;2.05;100.00
62694;BME280;48759;52.544;13.418;2023-01-25T11:13:39;102649.91;;;2.21;100.00
62694;BME280;48759;52.544;13.418;2023-01-25T11:16:17;102654.09;;;2.52;100.00
62694;BME280;48759;52.544;13.418;2023-01-25T11:18:50;102645.84;;;2.53;100.00
62694;BME280;48759;52.544;13.418;2023-01-25T11:21:20;102638.97;;;2.35;100.00
62694;BME280;48759;52.544;13.418;2023-01-25T11:23:59;102625.38;;;2.22;100.00
62694;BME280;48759;52.544;13.418;2023-01-25T11:26:26;102623.63;;;2.34;100.00
62694;BME280;48759;52.544;13.418;2023-01-25T11:29:06;102619.22;;;2.46;100.00
62694;BME280;48759;52.544;13.418;2023-01-25T11:31:33;102617.69;;;2.02;100.00
62694;BME280;48759;52.544;13.418;2023-01-25T11:34:00;102609.47;;;2.16;100.00
62694;BME280;48759;52.544;13.418;2023-01-25T11:36:32;102601.72;;;1.58;100.00
62694;BME280;48759;52.544;13.418;2023-01-25T11:39:18;102589.63;;;2.28;100.00
62694;BME280;48759;52.544;13.418;2023-01-25T11:41:59;102585.56;;;2.09;100.00
62694;BME280;48759;52.544;13.418;2023-01-25T11:45:01;102579.53;;;2.43;100.00
62694;BME280;48759;52.544;13.418;2023-01-25T11:47:47;102585.38;;;2.50;100.00
62694;BME280;48759;52.544;13.418;2023-01-25T11:50:21;102574.50;;;2.12;100.00
62694;BME280;48759;52.544;13.418;2023-01-25T11:53:13;102562.78;;;2.37;100.00
62694;BME280;48759;52.544;13.418;2023-01-25T11:55:48;102558.13;;;1.74;100.00
62694;BME280;48759;52.544;13.418;2023-01-25T11:58:31;102555.66;;;1.57;100.00
62694;BME280;48759;52.544;13.418;2023-01-25T12:01:09;102556.22;;;2.01;100.00
62694;BME280;48759;52.544;13.418;2023-01-25T12:04:04;102543.09;;;2.20;100.00
62694;BME280;48759;52.544;13.418;2023-01-25T12:06:44;102534.91;;;1.95;100.00
62694;BME280;48759;52.544;13.418;2023-01-25T12:09:33;102521.78;;;2.40;100.00
62694;BME280;48759;52.544;13.418;2023-01-25T12:12:19;102510.16;;;1.47;100.00
62694;BME280;48759;52.544;13.418;2023-01-25T12:15:11;102508.13;;;0.97;100.00
62694;BME280;48759;52.544;13.418;2023-01-25T12:17:52;102512.66;;;0.68;100.00
62694;BME280;48759;52.544;13.418;2023-01-25T12:20:37;102502.53;;;0.44;100.00
62694;BME280;48759;52.544;13.418;2023-01-25T12:23:18;102494.41;;;0.58;100.00
62694;BME280;48759;52.544;13.418;2023-01-25T12:25:59;102493.75;;;1.36;100.00
62694;BME280;48759;52.544;13.418;2023-01-25T12:28:32;102493.75;;;2.01;100.00
62694;BME280;48759;52.544;13.418;2023-01-25T12:31:06;102480.84;;;2.05;100.00
62694;BME280;48759;52.544;13.418;2023-01-25T12:33:39;102482.16;;;2.12;100.00
62694;BME280;48759;52.544;13.418;2023-01-25T12:36:10;102485.50;;;1.90;100.00
62694;BME280;48759;52.544;13.418;2023-01-25T12:38:43;102474.50;;;1.79;100.00
62694;BME280;48759;52.544;13.418;2023-01-25T12:41:23;102470.41;;;1.86;100.00
62694;BME280;48759;52.544;13.418;2023-01-25T12:43:54;102464.53;;;1.67;100.00
62694;BME280;48759;52.544;13.418;2023-01-25T12:46:27;102466.22;;;1.55;100.00
62694;BME280;48759;52.544;13.418;2023-01-25T12:48:59;102467.63;;;1.21;100.00
62694;BME280;48759;52.544;13.418;2023-01-25T12:51:49;102460.69;;;1.17;100.00
62694;BME280;48759;52.544;13.418;2023-01-25T12:54:21;102460.56;;;1.45;100.00
62694;BME280;48759;52.544;13.418;2023-01-25T12:56:57;102448.25;;;1.27;100.00
62694;BME280;48759;52.544;13.418;2023-01-25T12:59:32;102448.56;;;1.23;100.00
62694;BME280;48759;52.544;13.418;2023-01-25T13:02:16;102452.03;;;0.98;100.00